Time;durP1;ratioP1;P1;durP2;ratioP2;P2;SDS_P1;SDS_P2;PMS_P1;PMS_P2;Temp;Humidity;BMP_temperature;BMP_pressure;BME280_temperature;BME280_humidity;BME280_pressure;Samples;Min_cycle;Max_cycle;Signal;HPM_P1;HPM_P2
2022/09/09 00:00:49;;;;;;;1.85;0.88;;;13.20;99.90;;;;;;4975534;28;20063;-60
2022/09/09 00:03:25;;;;;;;4.25;1.88;;;13.20;99.90;;;;;;4974317;28;20352;-60
2022/09/09 00:06:23;;;;;;;3.05;1.20;;;13.30;99.90;;;;;;4991131;28;20561;-60
2022/09/09 00:09:19;;;;;;;5.75;1.20;;;13.20;99.90;;;;;;4980332;28;20147;-60
2022/09/09 00:12:08;;;;;;;3.97;1.02;;;13.20;99.90;;;;;;4976067;28;20052;-59
2022/09/09 00:14:48;;;;;;;1.50;1.08;;;13.20;99.90;;;;;;4974993;28;20810;-60
2022/09/09 00:17:45;;;;;;;6.03;1.17;;;13.20;99.90;;;;;;4973466;28;20042;-59
2022/09/09 00:20:19;;;;;;;7.07;1.05;;;13.20;99.90;;;;;;4975315;28;20789;-60
2022/09/09 00:23:11;;;;;;;6.22;1.25;;;13.30;99.90;;;;;;4976665;28;20264;-60
2022/09/09 00:25:49;;;;;;;1.83;1.25;;;13.30;99.90;;;;;;4971807;28;20060;-60
2022/09/09 00:28:22;;;;;;;3.92;1.10;;;13.30;99.90;;;;;;4965502;28;21048;-60
2022/09/09 00:30:49;;;;;;;1.95;1.25;;;13.30;99.90;;;;;;4977083;28;20037;-60
2022/09/09 00:33:21;;;;;;;2.45;1.10;;;13.30;99.90;;;;;;4975200;28;20033;-60
2022/09/09 00:35:51;;;;;;;4.43;1.05;;;13.30;99.90;;;;;;4977305;28;20122;-59
2022/09/09 00:38:36;;;;;;;2.53;1.02;;;13.30;99.90;;;;;;4969611;28;20609;-59
2022/09/09 00:41:22;;;;;;;1.70;1.00;;;13.30;99.90;;;;;;4991413;28;20041;-59
2022/09/09 00:44:17;;;;;;;1.38;0.73;;;13.30;99.90;;;;;;4961478;28;20042;-59
2022/09/09 00:46:59;;;;;;;1.58;1.10;;;13.30;99.90;;;;;;4964811;28;20411;-59
2022/09/09 00:49:54;;;;;;;8.73;1.35;;;13.30;99.90;;;;;;4980446;28;20078;-58
2022/09/09 00:52:35;;;;;;;6.38;1.17;;;13.30;99.90;;;;;;4975729;28;20405;-59
2022/09/09 00:55:12;;;;;;;4.50;1.33;;;13.30;99.90;;;;;;4977403;28;21060;-59
2022/09/09 00:57:40;;;;;;;1.52;1.42;;;13.30;99.90;;;;;;4973271;28;20785;-59
2022/09/09 01:00:31;;;;;;;3.03;1.15;;;13.30;99.90;;;;;;4964343;28;20468;-59
2022/09/09 01:03:10;;;;;;;2.75;1.10;;;13.30;99.90;;;;;;4973391;28;20037;-59
2022/09/09 01:05:46;;;;;;;4.18;0.98;;;13.30;99.90;;;;;;4975072;28;20249;-59
2022/09/09 01:08:52;;;;;;;3.95;1.27;;;13.30;99.90;;;;;;4969406;28;20048;-58
2022/09/09 01:11:37;;;;;;;2.83;1.38;;;13.30;99.90;;;;;;4930627;28;20577;-59
2022/09/09 01:14:34;;;;;;;2.65;1.10;;;13.30;99.90;;;;;;4973921;28;20240;-59
2022/09/09 01:17:22;;;;;;;7.28;1.50;;;13.30;99.90;;;;;;4974873;28;20252;-58
2022/09/09 01:20:00;;;;;;;1.98;1.20;;;13.30;99.90;;;;;;4964028;28;20215;-58
2022/09/09 01:23:04;;;;;;;4.40;1.17;;;13.30;99.90;;;;;;4975524;28;20034;-59
2022/09/09 01:25:43;;;;;;;1.40;0.80;;;13.30;99.90;;;;;;4980856;28;20053;-59
2022/09/09 01:28:25;;;;;;;2.72;1.10;;;13.30;99.90;;;;;;4979203;28;20150;-59
2022/09/09 01:30:56;;;;;;;3.72;1.38;;;13.30;99.90;;;;;;4976731;28;20045;-59
2022/09/09 01:33:25;;;;;;;3.92;1.33;;;13.30;99.90;;;;;;4965172;28;20215;-59
2022/09/09 01:36:07;;;;;;;6.78;1.08;;;13.30;99.90;;;;;;4986210;28;20140;-59
2022/09/09 01:38:42;;;;;;;3.15;1.10;;;13.30;99.90;;;;;;4974787;28;20040;-59
2022/09/09 01:41:09;;;;;;;1.42;1.00;;;13.20;99.90;;;;;;4980145;28;20114;-60
2022/09/09 01:43:51;;;;;;;2.58;1.13;;;13.20;99.90;;;;;;4967680;28;20430;-59
2022/09/09 01:46:21;;;;;;;2.38;1.13;;;13.20;99.90;;;;;;4985078;28;20535;-59
2022/09/09 01:48:50;;;;;;;2.78;1.13;;;13.20;99.90;;;;;;4974145;28;20438;-59
2022/09/09 01:51:18;;;;;;;3.13;0.90;;;13.30;99.90;;;;;;4976781;28;20052;-59
2022/09/09 01:53:47;;;;;;;3.72;1.00;;;13.20;99.90;;;;;;4965878;28;20053;-59
2022/09/09 01:56:53;;;;;;;5.35;0.90;;;13.20;99.90;;;;;;4976958;28;20064;-59
2022/09/09 01:59:26;;;;;;;6.28;1.30;;;13.20;99.90;;;;;;4906385;28;20209;-58
2022/09/09 02:02:17;;;;;;;4.53;0.90;;;13.30;99.90;;;;;;4907419;28;20047;-59
2022/09/09 02:05:01;;;;;;;1.30;1.15;;;13.30;99.90;;;;;;4957939;28;20842;-59
2022/09/09 02:07:45;;;;;;;2.72;1.38;;;13.20;99.90;;;;;;4975128;28;20091;-58
2022/09/09 02:10:31;;;;;;;2.05;1.15;;;13.20;99.90;;;;;;4985752;28;20041;-58
2022/09/09 02:13:17;;;;;;;5.90;1.85;;;13.20;99.90;;;;;;4973849;28;20038;-59
2022/09/09 02:16:06;;;;;;;3.25;1.52;;;13.20;99.90;;;;;;4981310;28;20305;-59
2022/09/09 02:18:42;;;;;;;9.02;1.60;;;13.10;99.90;;;;;;4974954;28;20538;-59
2022/09/09 02:21:11;;;;;;;8.10;1.70;;;13.10;99.90;;;;;;4979213;28;20171;-58
2022/09/09 02:23:41;;;;;;;3.47;1.30;;;13.00;99.90;;;;;;4974911;28;20037;-58
2022/09/09 02:26:19;;;;;;;3.53;1.80;;;13.00;99.90;;;;;;4976425;28;20136;-58
2022/09/09 02:28:52;;;;;;;3.08;1.20;;;13.00;99.90;;;;;;4973527;28;20045;-58
2022/09/09 02:31:22;;;;;;;2.97;1.17;;;13.00;99.90;;;;;;4983800;28;20574;-58
2022/09/09 02:33:57;;;;;;;5.25;1.13;;;13.00;99.90;;;;;;4977596;28;20298;-60
2022/09/09 02:36:29;;;;;;;1.30;1.00;;;13.00;99.90;;;;;;4980708;28;20053;-59
2022/09/09 02:38:56;;;;;;;2.65;1.40;;;13.00;99.90;;;;;;4974898;28;20072;-60
2022/09/09 02:41:33;;;;;;;1.63;1.13;;;13.00;99.90;;;;;;4972871;28;20049;-59
2022/09/09 02:44:01;;;;;;;7.57;1.35;;;13.00;99.90;;;;;;4976337;28;20045;-59
2022/09/09 02:46:56;;;;;;;4.13;1.10;;;13.00;99.90;;;;;;4966082;28;20061;-59
2022/09/09 02:49:55;;;;;;;1.73;0.88;;;13.00;99.90;;;;;;4974686;28;20445;-60
2022/09/09 02:52:45;;;;;;;2.83;1.55;;;13.00;99.90;;;;;;4970549;28;20044;-59
2022/09/09 02:55:38;;;;;;;7.68;1.20;;;13.00;99.90;;;;;;4967433;28;20455;-60
2022/09/09 02:58:11;;;;;;;9.95;1.60;;;12.90;99.90;;;;;;4964218;28;20518;-60
2022/09/09 03:00:39;;;;;;;4.50;1.60;;;12.90;99.90;;;;;;4975488;28;20068;-60
2022/09/09 03:03:09;;;;;;;9.18;1.85;;;12.90;99.90;;;;;;4973131;28;20056;-60
2022/09/09 03:05:37;;;;;;;2.58;1.23;;;12.90;99.90;;;;;;4976216;28;20104;-59
2022/09/09 03:08:05;;;;;;;2.97;1.20;;;12.80;99.90;;;;;;4984217;28;20191;-60
2022/09/09 03:10:33;;;;;;;4.82;1.33;;;12.90;99.90;;;;;;4972831;28;20198;-59
2022/09/09 03:13:00;;;;;;;3.53;1.33;;;12.90;99.90;;;;;;4982633;28;20156;-59
2022/09/09 03:15:32;;;;;;;3.85;1.25;;;12.90;99.90;;;;;;4973205;28;20631;-60
2022/09/09 03:18:00;;;;;;;8.18;1.40;;;12.90;99.90;;;;;;4955792;28;20124;-59
2022/09/09 03:20:28;;;;;;;4.10;1.73;;;12.90;99.90;;;;;;4978059;28;20045;-60
2022/09/09 03:22:57;;;;;;;2.58;1.20;;;12.90;99.90;;;;;;4975848;28;20304;-60
2022/09/09 03:25:24;;;;;;;3.90;1.52;;;12.90;99.90;;;;;;4991142;28;20122;-59
2022/09/09 03:27:54;;;;;;;4.28;1.55;;;12.90;99.90;;;;;;4981636;28;20045;-60
2022/09/09 03:30:26;;;;;;;5.03;1.67;;;12.90;99.90;;;;;;4982274;28;20048;-59
2022/09/09 03:32:55;;;;;;;9.73;2.10;;;12.90;99.90;;;;;;4980870;28;20752;-59
2022/09/09 03:35:26;;;;;;;1.25;1.10;;;12.90;99.90;;;;;;4964608;28;20037;-59
2022/09/09 03:37:55;;;;;;;11.00;1.92;;;12.90;99.90;;;;;;4977555;28;20051;-60
2022/09/09 03:40:22;;;;;;;2.75;1.20;;;12.90;99.90;;;;;;4963867;28;20186;-60
2022/09/09 03:42:49;;;;;;;5.38;2.08;;;12.90;99.90;;;;;;4973464;28;20052;-59
2022/09/09 03:45:17;;;;;;;5.50;1.60;;;12.90;99.90;;;;;;4979369;28;20045;-60
2022/09/09 03:47:44;;;;;;;5.05;1.30;;;13.00;99.90;;;;;;4982728;28;20033;-58
2022/09/09 03:50:11;;;;;;;4.43;1.45;;;13.10;99.90;;;;;;4962520;28;20563;-59
2022/09/09 03:52:43;;;;;;;5.63;1.50;;;13.10;99.90;;;;;;4973670;28;20061;-59
2022/09/09 03:55:17;;;;;;;3.10;1.52;;;13.20;99.90;;;;;;4972377;28;20179;-60
2022/09/09 03:57:45;;;;;;;3.92;1.20;;;13.30;99.90;;;;;;4972887;28;20037;-60
2022/09/09 04:00:13;;;;;;;4.65;1.63;;;13.30;99.90;;;;;;4983700;28;20485;-60
2022/09/09 04:02:47;;;;;;;1.92;1.33;;;13.40;99.90;;;;;;4977570;28;20201;-60
2022/09/09 04:05:15;;;;;;;3.65;1.42;;;13.40;99.90;;;;;;4973154;28;20615;-58
2022/09/09 04:07:45;;;;;;;5.38;1.23;;;13.50;99.90;;;;;;4963205;28;20160;-60
2022/09/09 04:10:13;;;;;;;3.38;1.35;;;13.50;99.90;;;;;;4973308;28;20053;-60
2022/09/09 04:12:40;;;;;;;3.17;1.55;;;13.60;99.90;;;;;;4960826;28;20041;-59
2022/09/09 04:15:07;;;;;;;4.53;1.80;;;13.70;99.90;;;;;;4980027;28;20060;-60
2022/09/09 04:17:36;;;;;;;1.67;1.10;;;13.80;99.90;;;;;;4965784;28;20041;-60
2022/09/09 04:20:04;;;;;;;4.07;2.20;;;13.80;99.90;;;;;;4956035;28;20033;-59
2022/09/09 04:22:31;;;;;;;3.20;1.52;;;13.80;99.90;;;;;;4985352;28;20140;-60
2022/09/09 04:24:59;;;;;;;4.03;1.70;;;13.80;99.90;;;;;;4973446;28;20581;-58
2022/09/09 04:27:28;;;;;;;3.10;1.73;;;13.80;99.90;;;;;;4950465;28;20045;-59
2022/09/09 04:29:56;;;;;;;7.07;1.30;;;13.80;99.90;;;;;;4975580;28;20505;-59
2022/09/09 04:32:26;;;;;;;4.03;1.50;;;13.80;99.90;;;;;;4955500;28;20053;-57
2022/09/09 04:34:54;;;;;;;3.13;1.48;;;13.80;99.90;;;;;;4976226;28;20160;-58
2022/09/09 04:37:21;;;;;;;3.55;1.20;;;13.80;99.90;;;;;;4971226;28;20041;-59
2022/09/09 04:39:48;;;;;;;4.43;1.30;;;13.80;99.90;;;;;;4974164;28;20041;-58
2022/09/09 04:42:17;;;;;;;2.80;1.35;;;13.70;99.90;;;;;;4965545;28;20041;-58
2022/09/09 04:44:45;;;;;;;2.30;1.08;;;13.80;99.90;;;;;;4964865;28;20353;-59
2022/09/09 04:47:14;;;;;;;3.35;1.42;;;13.80;99.90;;;;;;4976409;28;20352;-59
2022/09/09 04:49:41;;;;;;;2.38;1.38;;;13.80;99.90;;;;;;4970837;28;20656;-57
2022/09/09 04:52:08;;;;;;;4.78;1.40;;;13.80;99.90;;;;;;4978624;28;20049;-58
2022/09/09 04:54:36;;;;;;;4.47;1.58;;;13.80;99.90;;;;;;4969378;28;20045;-58
2022/09/09 04:57:04;;;;;;;5.45;1.17;;;13.80;99.90;;;;;;4972514;28;20064;-58
2022/09/09 04:59:32;;;;;;;2.10;1.15;;;13.80;99.90;;;;;;4976341;28;20136;-58
2022/09/09 05:02:01;;;;;;;2.95;1.25;;;13.80;99.90;;;;;;4984771;28;20037;-58
2022/09/09 05:04:29;;;;;;;2.95;1.23;;;13.80;99.90;;;;;;4980335;28;20156;-59
2022/09/09 05:06:56;;;;;;;6.00;2.15;;;13.80;99.90;;;;;;4986319;28;20053;-58
2022/09/09 05:09:23;;;;;;;2.13;1.20;;;13.90;99.90;;;;;;4978155;28;20050;-59
2022/09/09 05:11:51;;;;;;;2.00;1.05;;;13.80;99.90;;;;;;4979558;28;20047;-59
2022/09/09 05:14:30;;;;;;;6.80;1.58;;;13.90;99.90;;;;;;4977465;28;20563;-59
2022/09/09 05:16:59;;;;;;;14.10;1.50;;;13.90;99.90;;;;;;4987742;28;20033;-59
2022/09/09 05:19:26;;;;;;;3.53;1.48;;;13.90;99.90;;;;;;4983643;28;20076;-58
2022/09/09 05:21:54;;;;;;;2.65;1.27;;;13.90;99.90;;;;;;4982057;28;20493;-59
2022/09/09 05:24:28;;;;;;;5.25;1.10;;;13.90;99.90;;;;;;4981267;28;20045;-59
2022/09/09 05:26:58;;;;;;;3.85;1.10;;;13.90;99.90;;;;;;4979109;28;20042;-56
2022/09/09 05:29:26;;;;;;;2.72;1.55;;;13.90;99.90;;;;;;4986310;28;20127;-56
2022/09/09 05:31:55;;;;;;;6.22;1.77;;;13.90;99.90;;;;;;4967104;28;20729;-57
2022/09/09 05:34:22;;;;;;;4.20;1.63;;;14.00;99.90;;;;;;4974937;28;20060;-55
2022/09/09 05:36:52;;;;;;;2.83;1.33;;;14.00;99.90;;;;;;4966591;28;20033;-56
2022/09/09 05:39:21;;;;;;;3.45;1.42;;;14.00;99.90;;;;;;4969807;28;20112;-56
2022/09/09 05:41:48;;;;;;;4.13;1.25;;;14.00;99.90;;;;;;4964249;28;20065;-56
2022/09/09 05:44:15;;;;;;;2.95;1.27;;;14.10;99.90;;;;;;4977012;28;20135;-56
2022/09/09 05:46:44;;;;;;;1.95;1.38;;;14.10;99.90;;;;;;4962098;28;20126;-57
2022/09/09 05:49:15;;;;;;;2.50;1.20;;;14.20;99.90;;;;;;4973556;28;20056;-55
2022/09/09 05:51:44;;;;;;;4.03;1.35;;;14.30;99.90;;;;;;4976675;28;20063;-57
2022/09/09 05:54:15;;;;;;;6.20;1.40;;;14.40;99.90;;;;;;4940605;28;20130;-59
2022/09/09 05:56:46;;;;;;;5.68;1.08;;;14.40;99.90;;;;;;4991426;28;20472;-60
2022/09/09 05:59:18;;;;;;;2.83;1.17;;;14.50;99.90;;;;;;4967171;28;20052;-59
2022/09/09 06:01:46;;;;;;;3.75;1.00;;;14.50;99.90;;;;;;4966349;28;20567;-60
2022/09/09 06:04:24;;;;;;;3.03;1.00;;;14.60;99.90;;;;;;4974515;28;20524;-61
2022/09/09 06:06:52;;;;;;;3.05;1.05;;;14.60;99.90;;;;;;4976222;28;20582;-60
2022/09/09 06:09:22;;;;;;;2.35;1.02;;;14.70;99.90;;;;;;4944805;28;20395;-59
2022/09/09 06:11:50;;;;;;;2.35;1.23;;;14.60;99.90;;;;;;4979392;28;20045;-57
2022/09/09 06:14:19;;;;;;;1.67;1.17;;;14.60;99.90;;;;;;4976838;28;20696;-57
2022/09/09 06:16:47;;;;;;;3.55;1.08;;;14.60;99.90;;;;;;4974611;28;20214;-58
2022/09/09 06:19:21;;;;;;;1.23;0.60;;;14.60;99.90;;;;;;4978539;28;20176;-58
2022/09/09 06:21:50;;;;;;;4.95;0.82;;;14.60;99.90;;;;;;4966934;28;20593;-56
2022/09/09 06:24:19;;;;;;;1.70;0.70;;;14.50;99.90;;;;;;4977757;28;20044;-58
2022/09/09 06:26:46;;;;;;;1.63;0.75;;;14.50;99.90;;;;;;4974949;28;20361;-56
2022/09/09 06:29:19;;;;;;;1.60;1.05;;;14.50;99.90;;;;;;4972639;28;20064;-55
2022/09/09 06:31:47;;;;;;;2.58;1.10;;;14.50;99.90;;;;;;4977808;28;20060;-55
2022/09/09 06:34:20;;;;;;;2.17;1.00;;;14.40;99.90;;;;;;4967538;28;20119;-55
2022/09/09 06:36:51;;;;;;;2.20;0.70;;;14.40;99.90;;;;;;4969683;28;20716;-55
2022/09/09 06:39:19;;;;;;;1.17;0.80;;;14.40;99.90;;;;;;4979655;28;20033;-58
2022/09/09 06:41:47;;;;;;;1.17;0.70;;;14.40;99.90;;;;;;4974852;28;20073;-60
2022/09/09 06:44:33;;;;;;;0.70;0.70;;;14.50;99.90;;;;;;4976368;28;20160;-58
2022/09/09 06:47:04;;;;;;;1.10;0.98;;;14.50;99.90;;;;;;4972668;28;20309;-56
2022/09/09 06:49:32;;;;;;;0.77;0.70;;;14.50;99.90;;;;;;4982877;28;20042;-56
2022/09/09 06:52:01;;;;;;;3.05;1.00;;;14.50;99.90;;;;;;4961002;28;20121;-57
2022/09/09 06:54:29;;;;;;;1.27;0.77;;;14.50;99.90;;;;;;4985204;28;20068;-57
2022/09/09 06:56:58;;;;;;;5.50;0.88;;;14.60;99.90;;;;;;4984595;28;20044;-59
2022/09/09 06:59:31;;;;;;;1.35;0.73;;;14.60;99.90;;;;;;4981556;28;20049;-59
2022/09/09 07:01:59;;;;;;;1.30;0.80;;;14.60;99.90;;;;;;4968477;28;20041;-56
2022/09/09 07:04:26;;;;;;;1.55;0.90;;;14.60;99.90;;;;;;4981070;28;20045;-56
2022/09/09 07:06:54;;;;;;;6.07;1.23;;;14.70;99.90;;;;;;4984649;28;20044;-58
2022/09/09 07:09:23;;;;;;;1.10;0.90;;;14.70;99.90;;;;;;4968406;28;20048;-57
2022/09/09 07:11:53;;;;;;;1.15;0.88;;;14.80;99.90;;;;;;4950199;28;20099;-56
2022/09/09 07:14:23;;;;;;;2.55;1.00;;;14.80;99.90;;;;;;4985602;28;20126;-55
2022/09/09 07:16:57;;;;;;;4.72;1.00;;;14.90;99.90;;;;;;4963979;28;20309;-56
2022/09/09 07:19:27;;;;;;;3.60;1.00;;;14.90;99.90;;;;;;4966751;28;20041;-55
2022/09/09 07:21:56;;;;;;;1.40;0.70;;;14.90;99.90;;;;;;4970846;28;20053;-56
2022/09/09 07:24:24;;;;;;;3.47;1.20;;;14.90;99.90;;;;;;4975629;28;20148;-54
2022/09/09 07:26:52;;;;;;;1.60;1.10;;;15.00;99.90;;;;;;4969118;28;20063;-56
2022/09/09 07:29:20;;;;;;;2.15;1.00;;;15.00;99.90;;;;;;4978309;28;20053;-56
2022/09/09 07:31:50;;;;;;;1.58;0.77;;;15.00;99.90;;;;;;4978228;28;20588;-57
2022/09/09 07:34:23;;;;;;;1.23;0.90;;;14.90;99.90;;;;;;4982349;28;20052;-56
2022/09/09 07:36:51;;;;;;;2.15;0.98;;;14.90;99.90;;;;;;4975312;28;20041;-57
2022/09/09 07:39:19;;;;;;;1.73;0.85;;;15.00;99.90;;;;;;4978140;28;20869;-59
2022/09/09 07:41:50;;;;;;;2.00;0.88;;;14.90;99.90;;;;;;4983497;28;20760;-55
2022/09/09 07:44:24;;;;;;;3.25;1.40;;;15.00;99.90;;;;;;4974403;28;20325;-54
2022/09/09 07:47:03;;;;;;;2.65;0.90;;;14.90;99.90;;;;;;4980798;28;20573;-53
2022/09/09 07:49:43;;;;;;;2.08;1.10;;;14.90;99.90;;;;;;4967807;28;20034;-55
2022/09/09 07:52:11;;;;;;;1.75;1.00;;;15.00;99.90;;;;;;4972733;28;20361;-55
2022/09/09 07:54:45;;;;;;;2.85;1.00;;;15.00;99.90;;;;;;4976584;28;20048;-55
2022/09/09 07:57:13;;;;;;;1.60;1.20;;;14.90;99.90;;;;;;4975415;28;20033;-55
2022/09/09 07:59:41;;;;;;;10.45;1.40;;;15.00;99.90;;;;;;4973126;28;20838;-56
2022/09/09 08:02:09;;;;;;;1.08;0.82;;;15.00;99.90;;;;;;4973724;28;20033;-55
2022/09/09 08:04:36;;;;;;;0.95;0.70;;;15.00;99.90;;;;;;4964166;28;20206;-54
2022/09/09 08:07:04;;;;;;;1.35;0.90;;;15.00;99.90;;;;;;4983697;28;20214;-55
2022/09/09 08:09:42;;;;;;;4.55;1.42;;;15.00;99.90;;;;;;4964744;28;20060;-55
2022/09/09 08:12:16;;;;;;;2.05;1.00;;;15.00;99.90;;;;;;4968226;28;20258;-56
2022/09/09 08:14:43;;;;;;;3.03;1.00;;;15.00;99.90;;;;;;4957522;28;20636;-54
2022/09/09 08:17:11;;;;;;;1.27;0.95;;;15.10;99.90;;;;;;4974365;28;20064;-55
2022/09/09 08:19:38;;;;;;;1.27;1.10;;;15.10;99.90;;;;;;4974453;28;20568;-56
2022/09/09 08:22:11;;;;;;;5.35;1.20;;;15.10;99.90;;;;;;4975973;28;20482;-58
2022/09/09 08:24:39;;;;;;;3.97;1.20;;;15.20;99.90;;;;;;4983475;28;20041;-56
2022/09/09 08:27:09;;;;;;;1.15;1.00;;;15.20;99.90;;;;;;4975842;28;20049;-59
2022/09/09 08:29:38;;;;;;;1.63;1.05;;;15.30;99.90;;;;;;4977114;28;20046;-56
2022/09/09 08:32:06;;;;;;;2.58;0.95;;;15.40;99.90;;;;;;4973091;28;20262;-56
2022/09/09 08:34:34;;;;;;;1.60;1.00;;;15.40;99.90;;;;;;5034050;28;20049;-55
2022/09/09 08:37:06;;;;;;;1.58;0.57;;;15.50;99.90;;;;;;5008411;28;20144;-57
2022/09/09 08:39:37;;;;;;;3.70;1.00;;;15.60;99.90;;;;;;4987189;28;20045;-60
2022/09/09 08:42:11;;;;;;;2.05;0.80;;;15.70;99.90;;;;;;4984626;28;20038;-55
2022/09/09 08:45:00;;;;;;;5.47;1.25;;;16.00;99.90;;;;;;4993125;28;20045;-55
2022/09/09 08:47:39;;;;;;;3.90;0.80;;;16.30;99.90;;;;;;4985079;28;20052;-58
2022/09/09 08:50:38;;;;;;;3.40;1.23;;;16.30;99.90;;;;;;4976599;28;20156;-57
2022/09/09 08:53:19;;;;;;;4.85;1.33;;;16.40;99.90;;;;;;4965403;28;20049;-53
2022/09/09 08:55:48;;;;;;;3.45;1.23;;;16.40;99.90;;;;;;4970043;28;20623;-57
2022/09/09 08:58:46;;;;;;;5.32;1.38;;;16.40;99.90;;;;;;4976379;28;20038;-57
2022/09/09 09:01:42;;;;;;;2.72;1.10;;;16.40;99.90;;;;;;4972130;28;20578;-58
2022/09/09 09:04:32;;;;;;;1.80;0.70;;;16.40;99.90;;;;;;4975075;28;20068;-57
2022/09/09 09:07:50;;;;;;;4.93;1.80;;;16.50;99.90;;;;;;4973303;28;20388;-58
2022/09/09 09:10:25;;;;;;;4.10;1.17;;;16.60;99.90;;;;;;4946471;28;20037;-58
2022/09/09 09:13:37;;;;;;;1.40;0.93;;;16.70;99.90;;;;;;4990236;28;20057;-57
2022/09/09 09:16:19;;;;;;;2.95;1.00;;;16.80;99.90;;;;;;4971832;28;20637;-58
2022/09/09 09:18:46;;;;;;;4.68;1.08;;;17.00;99.90;;;;;;4954512;28;20502;-57
2022/09/09 09:21:25;;;;;;;3.10;0.65;;;17.10;99.90;;;;;;4983362;28;20800;-57
2022/09/09 09:23:58;;;;;;;3.15;1.20;;;17.40;99.90;;;;;;4971124;28;21261;-58
2022/09/09 09:26:33;;;;;;;6.50;1.02;;;17.50;99.90;;;;;;4970984;28;20052;-59
2022/09/09 09:29:13;;;;;;;2.80;0.70;;;17.60;99.90;;;;;;4973571;28;20049;-60
2022/09/09 09:32:04;;;;;;;2.30;0.70;;;17.80;99.90;;;;;;4958208;28;20927;-60
2022/09/09 09:34:31;;;;;;;4.60;1.00;;;17.90;99.90;;;;;;4974492;28;20554;-59
2022/09/09 09:37:04;;;;;;;3.38;1.10;;;17.90;99.90;;;;;;4970115;28;20574;-60
2022/09/09 09:39:39;;;;;;;4.22;0.77;;;17.90;99.90;;;;;;4962633;28;20206;-57
2022/09/09 09:42:27;;;;;;;2.40;1.20;;;17.80;99.90;;;;;;4969904;28;20309;-62
2022/09/09 09:45:06;;;;;;;3.17;0.65;;;17.80;99.90;;;;;;4983636;28;20055;-57
2022/09/09 09:47:34;;;;;;;3.80;0.85;;;17.70;99.90;;;;;;4983035;28;20613;-58
2022/09/09 09:50:20;;;;;;;5.03;1.48;;;17.60;99.90;;;;;;4972596;28;20341;-59
2022/09/09 09:52:57;;;;;;;2.75;0.90;;;17.60;99.90;;;;;;4981010;28;20071;-57
2022/09/09 09:55:29;;;;;;;4.10;0.80;;;17.50;99.90;;;;;;4977631;28;20212;-58
2022/09/09 09:58:05;;;;;;;2.20;0.80;;;17.50;99.90;;;;;;4969617;28;20562;-59
2022/09/09 10:00:36;;;;;;;7.47;1.08;;;17.50;99.90;;;;;;4977948;28;20308;-63
2022/09/09 10:03:28;;;;;;;9.88;1.20;;;17.60;99.90;;;;;;4980477;28;20294;-60
2022/09/09 10:05:57;;;;;;;0.98;0.77;;;17.70;99.90;;;;;;4964412;28;20695;-60
2022/09/09 10:08:26;;;;;;;3.83;0.77;;;17.70;99.90;;;;;;4979908;28;20052;-61
2022/09/09 10:11:07;;;;;;;4.28;0.98;;;17.70;99.90;;;;;;4980788;28;20055;-61
2022/09/09 10:14:00;;;;;;;3.17;0.90;;;18.00;99.90;;;;;;4976218;28;20446;-61
2022/09/09 10:16:52;;;;;;;6.95;1.40;;;18.50;99.90;;;;;;4975457;28;20076;-62
2022/09/09 10:19:27;;;;;;;1.98;0.85;;;19.20;99.90;;;;;;4970363;28;20041;-61
2022/09/09 10:22:03;;;;;;;1.95;0.93;;;19.80;99.90;;;;;;4979220;28;20040;-62
2022/09/09 10:24:54;;;;;;;2.90;1.58;;;20.30;99.90;;;;;;4968004;28;20037;-62
2022/09/09 10:28:03;;;;;;;2.72;1.20;;;20.80;99.90;;;;;;4975837;28;20064;-62
2022/09/09 10:31:06;;;;;;;4.93;0.82;;;21.00;99.90;;;;;;4913956;28;20070;-60
2022/09/09 10:33:42;;;;;;;2.03;1.02;;;20.90;99.90;;;;;;4973358;28;20045;-62
2022/09/09 10:36:13;;;;;;;5.35;1.08;;;20.90;99.90;;;;;;4981500;28;20293;-62
2022/09/09 10:38:43;;;;;;;2.13;0.73;;;20.80;99.90;;;;;;4985391;28;20690;-62
2022/09/09 10:41:15;;;;;;;2.15;0.68;;;20.90;99.90;;;;;;4973334;28;20041;-62
2022/09/09 10:43:42;;;;;;;3.33;0.80;;;21.00;99.90;;;;;;4985085;28;20569;-62
2022/09/09 10:46:15;;;;;;;4.95;1.33;;;21.10;99.90;;;;;;4972160;28;20056;-62
2022/09/09 10:49:23;;;;;;;1.90;0.75;;;21.20;99.90;;;;;;4976923;28;20045;-62
2022/09/09 10:52:05;;;;;;;2.90;0.80;;;21.30;99.90;;;;;;4969395;28;20049;-62
2022/09/09 10:54:48;;;;;;;1.83;0.75;;;21.50;99.90;;;;;;4976112;28;20411;-62
2022/09/09 10:57:25;;;;;;;3.55;1.13;;;21.60;97.70;;;;;;4965274;28;20248;-62
2022/09/09 10:59:57;;;;;;;2.28;0.90;;;21.70;99.50;;;;;;4976762;28;20048;-63
2022/09/09 11:02:29;;;;;;;4.68;1.20;;;21.40;99.90;;;;;;4972415;28;20368;-63
2022/09/09 11:04:59;;;;;;;5.15;0.90;;;21.10;99.90;;;;;;4979240;28;20133;-64
2022/09/09 11:07:52;;;;;;;4.07;1.40;;;20.70;99.90;;;;;;4983718;28;20579;-62
2022/09/09 11:10:19;;;;;;;2.92;1.08;;;20.30;99.90;;;;;;4968582;28;20041;-62
2022/09/09 11:12:49;;;;;;;3.22;1.23;;;19.90;99.90;;;;;;4977882;28;20042;-60
2022/09/09 11:15:32;;;;;;;3.40;1.00;;;19.70;99.90;;;;;;4971904;28;20312;-62
2022/09/09 11:18:04;;;;;;;3.25;1.13;;;19.40;99.90;;;;;;4969462;28;20823;-62
2022/09/09 11:20:32;;;;;;;3.03;1.45;;;19.10;99.90;;;;;;4974585;28;20049;-62
2022/09/09 11:23:24;;;;;;;4.97;1.00;;;18.80;99.90;;;;;;4969625;28;20783;-63
2022/09/09 11:25:56;;;;;;;1.52;0.88;;;18.50;99.90;;;;;;4978524;28;20397;-63
2022/09/09 11:29:02;;;;;;;3.22;0.90;;;18.30;99.90;;;;;;4986722;28;20053;-64
2022/09/09 11:31:52;;;;;;;1.45;1.05;;;18.00;99.90;;;;;;4966637;28;20524;-63
2022/09/09 11:34:44;;;;;;;3.33;1.33;;;17.80;99.90;;;;;;4986707;28;20738;-63
2022/09/09 11:37:52;;;;;;;2.88;1.40;;;17.50;99.90;;;;;;4968097;28;20041;-62
2022/09/09 11:40:27;;;;;;;2.33;1.27;;;17.30;99.90;;;;;;4957774;28;20049;-62
2022/09/09 11:43:07;;;;;;;6.05;1.33;;;17.20;99.90;;;;;;4979730;28;20153;-63
2022/09/09 11:45:36;;;;;;;5.10;1.90;;;17.00;99.90;;;;;;4979422;28;20044;-63
2022/09/09 11:48:05;;;;;;;4.60;1.60;;;17.00;99.90;;;;;;4978051;28;20049;-62
2022/09/09 11:50:36;;;;;;;2.65;1.33;;;17.00;99.90;;;;;;4988586;28;20567;-60
2022/09/09 11:53:23;;;;;;;2.50;1.30;;;17.00;99.90;;;;;;4975512;28;20037;-59
2022/09/09 11:56:04;;;;;;;1.67;0.82;;;17.10;99.90;;;;;;4969829;28;20572;-61
2022/09/09 11:58:43;;;;;;;0.60;0.60;;;17.20;99.90;;;;;;4972615;28;20038;-61
2022/09/09 12:01:28;;;;;;;2.63;0.60;;;17.30;99.90;;;;;;4979319;28;21013;-62
2022/09/09 12:04:11;;;;;;;1.25;0.50;;;17.40;99.90;;;;;;4973577;28;20041;-62
2022/09/09 12:06:51;;;;;;;0.68;0.38;;;17.50;99.90;;;;;;4970828;28;20046;-58
2022/09/09 12:09:27;;;;;;;1.25;0.50;;;17.60;99.90;;;;;;4976197;28;20052;-61
2022/09/09 12:12:11;;;;;;;1.63;0.63;;;17.60;99.90;;;;;;4977806;28;20051;-60
2022/09/09 12:14:41;;;;;;;3.53;0.90;;;17.60;99.90;;;;;;4974075;28;20616;-61
2022/09/09 12:17:22;;;;;;;5.10;0.50;;;17.60;99.90;;;;;;4975863;28;20064;-61
2022/09/09 12:20:09;;;;;;;1.02;0.60;;;17.60;99.90;;;;;;4974608;28;20476;-61
2022/09/09 12:22:39;;;;;;;1.55;0.68;;;17.80;99.90;;;;;;4978749;28;20390;-61
2022/09/09 12:25:25;;;;;;;2.05;0.60;;;18.10;99.90;;;;;;4971041;28;20067;-61
2022/09/09 12:28:02;;;;;;;2.25;0.60;;;18.40;99.90;;;;;;4974009;28;20045;-61
2022/09/09 12:30:40;;;;;;;1.20;0.50;;;18.80;99.90;;;;;;4974014;28;20103;-61
2022/09/09 12:33:17;;;;;;;2.17;0.70;;;19.00;99.90;;;;;;4975673;28;20041;-61
2022/09/09 12:35:49;;;;;;;1.80;0.70;;;19.40;99.90;;;;;;4972049;28;20384;-62
2022/09/09 12:38:34;;;;;;;2.25;0.57;;;19.60;99.90;;;;;;4974243;28;20923;-61
2022/09/09 12:41:01;;;;;;;1.52;0.40;;;19.70;99.90;;;;;;4974668;28;20466;-61
2022/09/09 12:43:29;;;;;;;1.92;0.63;;;19.90;99.90;;;;;;4973090;28;20045;-61
2022/09/09 12:46:03;;;;;;;1.40;0.50;;;20.10;99.90;;;;;;4982368;28;20049;-62
2022/09/09 12:48:45;;;;;;;0.65;0.45;;;20.40;99.90;;;;;;4961399;28;20575;-61
2022/09/09 12:51:43;;;;;;;2.90;0.52;;;20.60;99.90;;;;;;4974566;28;20049;-62
2022/09/09 12:54:15;;;;;;;2.60;0.90;;;20.80;99.90;;;;;;4945833;28;20296;-61
2022/09/09 12:56:47;;;;;;;1.63;0.70;;;20.90;95.60;;;;;;4974660;28;20041;-62
2022/09/09 12:59:26;;;;;;;1.80;0.68;;;21.00;95.20;;;;;;4975413;28;20041;-61
2022/09/09 13:01:59;;;;;;;2.60;0.47;;;21.10;95.30;;;;;;4975064;28;20044;-61
2022/09/09 13:04:26;;;;;;;2.53;0.60;;;21.10;95.90;;;;;;4974357;28;20762;-61
2022/09/09 13:06:53;;;;;;;5.05;0.63;;;21.20;93.70;;;;;;4975202;28;20716;-60
2022/09/09 13:09:20;;;;;;;1.25;0.90;;;21.30;90.50;;;;;;4963322;28;20858;-61
2022/09/09 13:11:52;;;;;;;1.65;0.80;;;21.40;92.90;;;;;;4973421;28;20064;-61
2022/09/09 13:14:29;;;;;;;3.72;0.50;;;21.60;92.60;;;;;;4992414;28;20044;-62
2022/09/09 13:16:59;;;;;;;2.30;0.65;;;21.80;90.10;;;;;;4980176;28;20196;-62
2022/09/09 13:19:29;;;;;;;3.88;1.10;;;22.00;92.70;;;;;;4978005;28;20041;-62
2022/09/09 13:21:56;;;;;;;3.60;0.70;;;22.20;88.20;;;;;;4960219;28;20152;-62
2022/09/09 13:24:34;;;;;;;1.88;1.00;;;22.30;89.30;;;;;;4977767;28;20577;-62
2022/09/09 13:27:04;;;;;;;0.98;0.40;;;22.20;85.30;;;;;;4976193;28;20042;-62